sensor_id;sensor_type;location;lat;lon;timestamp;P1;durP1;ratioP1;P2;durP2;ratioP2
38615;SDS011;24370;51.986;4.666;2022-07-17T00:01:24;10.00;;;3.03;;
38615;SDS011;24370;51.986;4.666;2022-07-17T00:03:49;4.65;;;2.10;;
38615;SDS011;24370;51.986;4.666;2022-07-17T00:06:14;4.10;;;2.03;;
38615;SDS011;24370;51.986;4.666;2022-07-17T00:08:40;6.45;;;2.40;;
38615;SDS011;24370;51.986;4.666;2022-07-17T00:11:05;5.53;;;1.90;;
38615;SDS011;24370;51.986;4.666;2022-07-17T00:13:30;5.93;;;2.05;;
38615;SDS011;24370;51.986;4.666;2022-07-17T00:15:56;4.75;;;2.00;;
38615;SDS011;24370;51.986;4.666;2022-07-17T00:18:21;5.50;;;2.17;;
38615;SDS011;24370;51.986;4.666;2022-07-17T00:20:47;4.57;;;1.95;;
38615;SDS011;24370;51.986;4.666;2022-07-17T00:23:12;7.20;;;2.45;;
38615;SDS011;24370;51.986;4.666;2022-07-17T00:25:37;8.30;;;2.15;;
38615;SDS011;24370;51.986;4.666;2022-07-17T00:28:04;6.47;;;2.60;;
38615;SDS011;24370;51.986;4.666;2022-07-17T00:30:29;3.60;;;1.92;;
38615;SDS011;24370;51.986;4.666;2022-07-17T00:32:55;4.75;;;1.95;;
38615;SDS011;24370;51.986;4.666;2022-07-17T00:35:20;9.48;;;2.45;;
38615;SDS011;24370;51.986;4.666;2022-07-17T00:37:47;4.97;;;2.50;;
38615;SDS011;24370;51.986;4.666;2022-07-17T00:40:16;6.35;;;2.20;;
38615;SDS011;24370;51.986;4.666;2022-07-17T00:42:43;5.45;;;2.60;;
38615;SDS011;24370;51.986;4.666;2022-07-17T00:45:09;4.40;;;2.10;;
38615;SDS011;24370;51.986;4.666;2022-07-17T00:47:47;3.35;;;2.30;;
38615;SDS011;24370;51.986;4.666;2022-07-17T00:50:25;6.60;;;2.30;;
38615;SDS011;24370;51.986;4.666;2022-07-17T00:52:53;6.22;;;2.40;;
38615;SDS011;24370;51.986;4.666;2022-07-17T00:55:19;5.80;;;2.25;;
38615;SDS011;24370;51.986;4.666;2022-07-17T00:57:45;3.50;;;2.00;;
38615;SDS011;24370;51.986;4.666;2022-07-17T01:00:12;4.82;;;2.20;;
38615;SDS011;24370;51.986;4.666;2022-07-17T01:02:38;5.18;;;2.08;;
38615;SDS011;24370;51.986;4.666;2022-07-17T01:05:04;9.02;;;2.17;;
38615;SDS011;24370;51.986;4.666;2022-07-17T01:07:30;4.18;;;2.20;;
38615;SDS011;24370;51.986;4.666;2022-07-17T01:09:55;5.35;;;2.30;;
38615;SDS011;24370;51.986;4.666;2022-07-17T01:12:21;4.95;;;1.98;;
38615;SDS011;24370;51.986;4.666;2022-07-17T01:14:48;5.10;;;2.67;;
38615;SDS011;24370;51.986;4.666;2022-07-17T01:17:15;10.60;;;2.33;;
38615;SDS011;24370;51.986;4.666;2022-07-17T01:19:40;3.65;;;2.42;;
38615;SDS011;24370;51.986;4.666;2022-07-17T01:22:06;6.07;;;2.20;;
38615;SDS011;24370;51.986;4.666;2022-07-17T01:24:31;5.15;;;2.65;;
38615;SDS011;24370;51.986;4.666;2022-07-17T01:26:56;6.35;;;2.00;;
38615;SDS011;24370;51.986;4.666;2022-07-17T01:29:22;6.82;;;1.88;;
38615;SDS011;24370;51.986;4.666;2022-07-17T01:31:48;7.47;;;1.77;;
38615;SDS011;24370;51.986;4.666;2022-07-17T01:34:14;7.43;;;1.90;;
38615;SDS011;24370;51.986;4.666;2022-07-17T01:36:40;5.30;;;2.05;;
38615;SDS011;24370;51.986;4.666;2022-07-17T01:39:06;7.93;;;1.63;;
38615;SDS011;24370;51.986;4.666;2022-07-17T01:41:32;3.88;;;1.70;;
38615;SDS011;24370;51.986;4.666;2022-07-17T01:43:57;8.40;;;1.80;;
38615;SDS011;24370;51.986;4.666;2022-07-17T01:46:23;8.35;;;3.08;;
38615;SDS011;24370;51.986;4.666;2022-07-17T01:48:49;3.20;;;2.15;;
38615;SDS011;24370;51.986;4.666;2022-07-17T01:51:15;6.38;;;2.20;;
38615;SDS011;24370;51.986;4.666;2022-07-17T01:53:40;8.65;;;2.60;;
38615;SDS011;24370;51.986;4.666;2022-07-17T01:56:06;4.13;;;2.25;;
38615;SDS011;24370;51.986;4.666;2022-07-17T01:58:31;4.63;;;2.45;;
38615;SDS011;24370;51.986;4.666;2022-07-17T02:00:58;7.55;;;2.55;;
38615;SDS011;24370;51.986;4.666;2022-07-17T02:03:23;5.47;;;2.78;;
38615;SDS011;24370;51.986;4.666;2022-07-17T02:05:49;4.93;;;2.75;;
38615;SDS011;24370;51.986;4.666;2022-07-17T02:08:14;4.40;;;2.17;;
38615;SDS011;24370;51.986;4.666;2022-07-17T02:10:39;5.70;;;2.30;;
38615;SDS011;24370;51.986;4.666;2022-07-17T02:13:05;7.13;;;2.67;;
38615;SDS011;24370;51.986;4.666;2022-07-17T02:15:30;7.30;;;2.25;;
38615;SDS011;24370;51.986;4.666;2022-07-17T02:17:56;5.45;;;2.15;;
38615;SDS011;24370;51.986;4.666;2022-07-17T02:20:21;4.90;;;2.17;;
38615;SDS011;24370;51.986;4.666;2022-07-17T02:22:47;3.63;;;2.50;;
38615;SDS011;24370;51.986;4.666;2022-07-17T02:25:13;5.32;;;2.30;;
38615;SDS011;24370;51.986;4.666;2022-07-17T02:27:39;4.82;;;2.08;;
38615;SDS011;24370;51.986;4.666;2022-07-17T02:30:07;7.18;;;2.28;;
38615;SDS011;24370;51.986;4.666;2022-07-17T02:32:34;7.57;;;3.67;;
38615;SDS011;24370;51.986;4.666;2022-07-17T02:34:59;6.68;;;2.80;;
38615;SDS011;24370;51.986;4.666;2022-07-17T02:37:25;4.40;;;2.40;;
38615;SDS011;24370;51.986;4.666;2022-07-17T02:39:50;8.82;;;2.50;;
38615;SDS011;24370;51.986;4.666;2022-07-17T02:42:22;7.10;;;2.72;;
38615;SDS011;24370;51.986;4.666;2022-07-17T02:44:49;8.50;;;3.00;;
38615;SDS011;24370;51.986;4.666;2022-07-17T02:47:48;7.82;;;3.40;;
38615;SDS011;24370;51.986;4.666;2022-07-17T02:50:07;5.78;;;2.47;;
38615;SDS011;24370;51.986;4.666;2022-07-17T02:52:34;5.45;;;2.47;;
38615;SDS011;24370;51.986;4.666;2022-07-17T02:55:00;7.78;;;2.67;;
38615;SDS011;24370;51.986;4.666;2022-07-17T02:57:25;8.63;;;2.70;;
38615;SDS011;24370;51.986;4.666;2022-07-17T02:59:51;5.35;;;2.38;;
38615;SDS011;24370;51.986;4.666;2022-07-17T03:02:16;5.78;;;2.38;;
38615;SDS011;24370;51.986;4.666;2022-07-17T03:04:41;5.78;;;2.83;;
38615;SDS011;24370;51.986;4.666;2022-07-17T03:07:07;7.97;;;2.95;;
38615;SDS011;24370;51.986;4.666;2022-07-17T03:09:32;5.15;;;3.30;;
38615;SDS011;24370;51.986;4.666;2022-07-17T03:11:58;5.82;;;2.72;;
38615;SDS011;24370;51.986;4.666;2022-07-17T03:14:24;5.10;;;2.88;;
38615;SDS011;24370;51.986;4.666;2022-07-17T03:16:49;6.25;;;3.20;;
38615;SDS011;24370;51.986;4.666;2022-07-17T03:19:14;10.55;;;2.70;;
38615;SDS011;24370;51.986;4.666;2022-07-17T03:21:40;4.70;;;2.50;;
38615;SDS011;24370;51.986;4.666;2022-07-17T03:24:05;9.48;;;2.92;;
38615;SDS011;24370;51.986;4.666;2022-07-17T03:26:30;5.50;;;2.70;;
38615;SDS011;24370;51.986;4.666;2022-07-17T03:28:56;3.92;;;2.75;;
38615;SDS011;24370;51.986;4.666;2022-07-17T03:31:21;7.00;;;3.00;;
38615;SDS011;24370;51.986;4.666;2022-07-17T03:33:46;6.53;;;3.08;;
38615;SDS011;24370;51.986;4.666;2022-07-17T03:36:12;4.82;;;2.80;;
38615;SDS011;24370;51.986;4.666;2022-07-17T03:38:37;10.77;;;2.72;;
38615;SDS011;24370;51.986;4.666;2022-07-17T03:41:03;6.43;;;3.10;;
38615;SDS011;24370;51.986;4.666;2022-07-17T03:43:28;5.38;;;2.67;;
38615;SDS011;24370;51.986;4.666;2022-07-17T03:45:54;3.20;;;2.28;;
38615;SDS011;24370;51.986;4.666;2022-07-17T03:48:19;4.72;;;2.30;;
38615;SDS011;24370;51.986;4.666;2022-07-17T03:50:45;4.25;;;2.00;;
38615;SDS011;24370;51.986;4.666;2022-07-17T03:53:10;5.43;;;2.53;;
38615;SDS011;24370;51.986;4.666;2022-07-17T03:55:35;4.65;;;2.45;;
38615;SDS011;24370;51.986;4.666;2022-07-17T03:58:01;3.60;;;2.50;;
38615;SDS011;24370;51.986;4.666;2022-07-17T04:00:26;4.97;;;3.00;;
38615;SDS011;24370;51.986;4.666;2022-07-17T04:02:52;4.72;;;2.55;;
38615;SDS011;24370;51.986;4.666;2022-07-17T04:05:17;10.48;;;2.65;;
38615;SDS011;24370;51.986;4.666;2022-07-17T04:07:43;7.55;;;3.22;;
38615;SDS011;24370;51.986;4.666;2022-07-17T04:10:10;5.25;;;2.25;;
38615;SDS011;24370;51.986;4.666;2022-07-17T04:12:37;7.05;;;2.63;;
38615;SDS011;24370;51.986;4.666;2022-07-17T04:15:03;7.63;;;2.58;;
38615;SDS011;24370;51.986;4.666;2022-07-17T04:17:29;6.43;;;2.28;;
38615;SDS011;24370;51.986;4.666;2022-07-17T04:19:55;3.47;;;2.45;;
38615;SDS011;24370;51.986;4.666;2022-07-17T04:22:20;6.57;;;2.53;;
38615;SDS011;24370;51.986;4.666;2022-07-17T04:24:46;4.88;;;2.17;;
38615;SDS011;24370;51.986;4.666;2022-07-17T04:27:11;3.78;;;2.38;;
38615;SDS011;24370;51.986;4.666;2022-07-17T04:29:37;3.67;;;2.20;;
38615;SDS011;24370;51.986;4.666;2022-07-17T04:32:02;3.88;;;2.00;;
38615;SDS011;24370;51.986;4.666;2022-07-17T04:34:28;10.88;;;2.38;;
38615;SDS011;24370;51.986;4.666;2022-07-17T04:36:54;5.15;;;2.35;;
38615;SDS011;24370;51.986;4.666;2022-07-17T04:39:19;3.83;;;2.10;;
38615;SDS011;24370;51.986;4.666;2022-07-17T04:41:45;6.85;;;2.25;;
38615;SDS011;24370;51.986;4.666;2022-07-17T04:44:10;5.60;;;1.88;;
38615;SDS011;24370;51.986;4.666;2022-07-17T04:46:35;4.75;;;2.15;;
38615;SDS011;24370;51.986;4.666;2022-07-17T04:49:01;6.55;;;2.55;;
38615;SDS011;24370;51.986;4.666;2022-07-17T04:51:26;3.72;;;1.90;;
38615;SDS011;24370;51.986;4.666;2022-07-17T04:53:52;4.03;;;1.98;;
38615;SDS011;24370;51.986;4.666;2022-07-17T04:56:17;5.05;;;2.33;;
38615;SDS011;24370;51.986;4.666;2022-07-17T04:58:43;4.13;;;1.88;;
38615;SDS011;24370;51.986;4.666;2022-07-17T05:01:08;4.53;;;2.00;;
38615;SDS011;24370;51.986;4.666;2022-07-17T05:03:33;6.03;;;2.08;;
38615;SDS011;24370;51.986;4.666;2022-07-17T05:05:59;5.10;;;1.70;;
38615;SDS011;24370;51.986;4.666;2022-07-17T05:08:24;4.03;;;1.65;;
38615;SDS011;24370;51.986;4.666;2022-07-17T05:10:49;4.20;;;2.25;;
38615;SDS011;24370;51.986;4.666;2022-07-17T05:13:15;5.25;;;2.10;;
38615;SDS011;24370;51.986;4.666;2022-07-17T05:15:40;3.38;;;1.75;;
38615;SDS011;24370;51.986;4.666;2022-07-17T05:18:06;6.22;;;1.80;;
38615;SDS011;24370;51.986;4.666;2022-07-17T05:20:32;6.32;;;1.50;;
38615;SDS011;24370;51.986;4.666;2022-07-17T05:22:57;4.07;;;1.73;;
38615;SDS011;24370;51.986;4.666;2022-07-17T05:25:23;6.35;;;2.15;;
38615;SDS011;24370;51.986;4.666;2022-07-17T05:27:48;8.57;;;2.47;;
38615;SDS011;24370;51.986;4.666;2022-07-17T05:30:14;3.58;;;2.13;;
38615;SDS011;24370;51.986;4.666;2022-07-17T05:32:39;3.45;;;2.03;;
38615;SDS011;24370;51.986;4.666;2022-07-17T05:35:04;4.38;;;1.70;;
38615;SDS011;24370;51.986;4.666;2022-07-17T05:37:30;8.02;;;2.20;;
38615;SDS011;24370;51.986;4.666;2022-07-17T05:39:56;7.50;;;2.47;;
38615;SDS011;24370;51.986;4.666;2022-07-17T05:42:21;4.75;;;2.10;;
38615;SDS011;24370;51.986;4.666;2022-07-17T05:44:47;5.43;;;2.30;;
38615;SDS011;24370;51.986;4.666;2022-07-17T05:47:12;4.65;;;2.65;;
38615;SDS011;24370;51.986;4.666;2022-07-17T05:49:38;10.07;;;2.45;;
38615;SDS011;24370;51.986;4.666;2022-07-17T05:52:03;3.28;;;2.13;;
38615;SDS011;24370;51.986;4.666;2022-07-17T05:54:29;4.20;;;1.85;;
38615;SDS011;24370;51.986;4.666;2022-07-17T05:56:54;5.75;;;2.40;;
38615;SDS011;24370;51.986;4.666;2022-07-17T05:59:20;4.60;;;2.15;;
38615;SDS011;24370;51.986;4.666;2022-07-17T06:01:45;5.20;;;2.20;;
38615;SDS011;24370;51.986;4.666;2022-07-17T06:04:10;4.85;;;2.33;;
38615;SDS011;24370;51.986;4.666;2022-07-17T06:06:36;6.82;;;2.20;;
38615;SDS011;24370;51.986;4.666;2022-07-17T06:09:01;5.60;;;2.40;;
38615;SDS011;24370;51.986;4.666;2022-07-17T06:11:27;5.80;;;2.03;;
38615;SDS011;24370;51.986;4.666;2022-07-17T06:13:52;5.18;;;2.40;;
38615;SDS011;24370;51.986;4.666;2022-07-17T06:16:18;4.43;;;1.70;;
38615;SDS011;24370;51.986;4.666;2022-07-17T06:18:43;3.75;;;1.58;;
38615;SDS011;24370;51.986;4.666;2022-07-17T06:21:08;4.80;;;1.50;;
38615;SDS011;24370;51.986;4.666;2022-07-17T06:23:34;4.22;;;2.00;;
38615;SDS011;24370;51.986;4.666;2022-07-17T06:25:59;2.85;;;1.42;;
38615;SDS011;24370;51.986;4.666;2022-07-17T06:28:24;5.50;;;1.60;;
38615;SDS011;24370;51.986;4.666;2022-07-17T06:30:50;4.03;;;1.70;;
38615;SDS011;24370;51.986;4.666;2022-07-17T06:33:15;3.55;;;1.67;;
38615;SDS011;24370;51.986;4.666;2022-07-17T06:35:41;3.28;;;1.05;;
38615;SDS011;24370;51.986;4.666;2022-07-17T06:38:06;4.97;;;1.27;;
38615;SDS011;24370;51.986;4.666;2022-07-17T06:40:31;4.60;;;1.05;;
38615;SDS011;24370;51.986;4.666;2022-07-17T06:42:57;3.13;;;1.35;;
38615;SDS011;24370;51.986;4.666;2022-07-17T06:45:22;4.40;;;1.23;;
38615;SDS011;24370;51.986;4.666;2022-07-17T06:47:48;3.75;;;1.23;;
38615;SDS011;24370;51.986;4.666;2022-07-17T06:50:13;7.03;;;1.30;;
38615;SDS011;24370;51.986;4.666;2022-07-17T06:52:39;6.07;;;1.20;;
38615;SDS011;24370;51.986;4.666;2022-07-17T06:55:04;4.72;;;1.45;;
38615;SDS011;24370;51.986;4.666;2022-07-17T06:57:30;5.68;;;1.33;;
38615;SDS011;24370;51.986;4.666;2022-07-17T06:59:55;4.60;;;0.98;;
38615;SDS011;24370;51.986;4.666;2022-07-17T07:02:21;2.95;;;0.73;;
38615;SDS011;24370;51.986;4.666;2022-07-17T07:04:46;4.75;;;1.08;;
38615;SDS011;24370;51.986;4.666;2022-07-17T07:07:12;2.17;;;0.80;;
38615;SDS011;24370;51.986;4.666;2022-07-17T07:09:37;3.33;;;0.95;;
38615;SDS011;24370;51.986;4.666;2022-07-17T07:12:03;2.55;;;0.90;;
38615;SDS011;24370;51.986;4.666;2022-07-17T07:14:29;3.97;;;1.00;;
38615;SDS011;24370;51.986;4.666;2022-07-17T07:16:54;4.20;;;0.88;;
38615;SDS011;24370;51.986;4.666;2022-07-17T07:19:19;7.13;;;0.80;;
38615;SDS011;24370;51.986;4.666;2022-07-17T07:21:45;3.10;;;0.90;;
38615;SDS011;24370;51.986;4.666;2022-07-17T07:24:10;2.70;;;1.02;;
38615;SDS011;24370;51.986;4.666;2022-07-17T07:26:36;5.85;;;0.98;;
38615;SDS011;24370;51.986;4.666;2022-07-17T07:29:01;2.17;;;0.75;;
38615;SDS011;24370;51.986;4.666;2022-07-17T07:31:26;4.03;;;0.85;;
38615;SDS011;24370;51.986;4.666;2022-07-17T07:33:52;1.35;;;0.77;;
38615;SDS011;24370;51.986;4.666;2022-07-17T07:36:17;3.47;;;0.98;;
38615;SDS011;24370;51.986;4.666;2022-07-17T07:38:43;5.03;;;0.75;;
38615;SDS011;24370;51.986;4.666;2022-07-17T07:41:10;3.40;;;0.88;;
38615;SDS011;24370;51.986;4.666;2022-07-17T07:43:35;2.55;;;0.77;;
38615;SDS011;24370;51.986;4.666;2022-07-17T07:46:02;3.00;;;1.00;;
38615;SDS011;24370;51.986;4.666;2022-07-17T07:48:28;4.32;;;1.13;;
38615;SDS011;24370;51.986;4.666;2022-07-17T07:50:54;2.33;;;0.90;;
38615;SDS011;24370;51.986;4.666;2022-07-17T07:53:19;2.80;;;0.85;;
38615;SDS011;24370;51.986;4.666;2022-07-17T07:55:44;4.53;;;1.25;;
38615;SDS011;24370;51.986;4.666;2022-07-17T07:58:11;4.65;;;1.20;;
38615;SDS011;24370;51.986;4.666;2022-07-17T08:00:38;5.22;;;1.08;;
38615;SDS011;24370;51.986;4.666;2022-07-17T08:03:05;1.65;;;0.88;;
38615;SDS011;24370;51.986;4.666;2022-07-17T08:05:31;5.90;;;0.98;;
38615;SDS011;24370;51.986;4.666;2022-07-17T08:07:57;2.50;;;0.90;;
38615;SDS011;24370;51.986;4.666;2022-07-17T08:10:22;3.78;;;1.00;;
38615;SDS011;24370;51.986;4.666;2022-07-17T08:12:47;3.15;;;0.90;;
38615;SDS011;24370;51.986;4.666;2022-07-17T08:15:14;5.95;;;1.05;;
38615;SDS011;24370;51.986;4.666;2022-07-17T08:17:41;4.55;;;1.48;;
38615;SDS011;24370;51.986;4.666;2022-07-17T08:20:06;2.70;;;0.70;;
38615;SDS011;24370;51.986;4.666;2022-07-17T08:22:32;3.05;;;0.90;;
38615;SDS011;24370;51.986;4.666;2022-07-17T08:24:57;3.50;;;1.02;;
38615;SDS011;24370;51.986;4.666;2022-07-17T08:27:23;5.35;;;2.63;;
38615;SDS011;24370;51.986;4.666;2022-07-17T08:29:49;3.85;;;1.92;;
38615;SDS011;24370;51.986;4.666;2022-07-17T08:32:15;4.57;;;1.10;;
38615;SDS011;24370;51.986;4.666;2022-07-17T08:34:40;1.75;;;0.65;;
38615;SDS011;24370;51.986;4.666;2022-07-17T08:37:05;2.35;;;0.82;;
38615;SDS011;24370;51.986;4.666;2022-07-17T08:39:31;5.00;;;1.17;;
38615;SDS011;24370;51.986;4.666;2022-07-17T08:41:56;5.82;;;0.88;;
38615;SDS011;24370;51.986;4.666;2022-07-17T08:44:22;1.65;;;0.90;;
38615;SDS011;24370;51.986;4.666;2022-07-17T08:46:47;4.05;;;1.00;;
38615;SDS011;24370;51.986;4.666;2022-07-17T08:49:13;2.53;;;0.90;;
38615;SDS011;24370;51.986;4.666;2022-07-17T08:51:39;1.30;;;0.70;;
38615;SDS011;24370;51.986;4.666;2022-07-17T08:54:04;3.55;;;0.88;;
38615;SDS011;24370;51.986;4.666;2022-07-17T08:56:29;2.75;;;0.80;;
38615;SDS011;24370;51.986;4.666;2022-07-17T08:58:55;0.98;;;0.63;;
38615;SDS011;24370;51.986;4.666;2022-07-17T09:01:20;3.78;;;0.98;;
38615;SDS011;24370;51.986;4.666;2022-07-17T09:03:58;2.80;;;1.00;;
38615;SDS011;24370;51.986;4.666;2022-07-17T09:06:31;2.42;;;0.80;;
38615;SDS011;24370;51.986;4.666;2022-07-17T09:09:06;2.45;;;0.77;;
38615;SDS011;24370;51.986;4.666;2022-07-17T09:11:41;2.60;;;0.80;;
38615;SDS011;24370;51.986;4.666;2022-07-17T09:14:08;2.20;;;0.68;;
38615;SDS011;24370;51.986;4.666;2022-07-17T09:16:34;3.72;;;0.68;;
38615;SDS011;24370;51.986;4.666;2022-07-17T09:19:01;4.80;;;1.00;;
38615;SDS011;24370;51.986;4.666;2022-07-17T09:21:27;2.33;;;0.63;;
38615;SDS011;24370;51.986;4.666;2022-07-17T09:24:07;3.17;;;1.00;;
38615;SDS011;24370;51.986;4.666;2022-07-17T09:26:33;2.78;;;0.70;;
38615;SDS011;24370;51.986;4.666;2022-07-17T09:29:02;1.90;;;0.80;;
38615;SDS011;24370;51.986;4.666;2022-07-17T09:31:29;2.72;;;0.80;;
38615;SDS011;24370;51.986;4.666;2022-07-17T09:33:56;2.60;;;0.80;;
38615;SDS011;24370;51.986;4.666;2022-07-17T09:36:22;1.45;;;0.93;;
38615;SDS011;24370;51.986;4.666;2022-07-17T09:38:49;3.50;;;1.00;;
38615;SDS011;24370;51.986;4.666;2022-07-17T09:41:19;1.77;;;0.82;;
38615;SDS011;24370;51.986;4.666;2022-07-17T09:43:52;4.10;;;1.08;;
38615;SDS011;24370;51.986;4.666;2022-07-17T09:46:26;3.33;;;0.90;;
38615;SDS011;24370;51.986;4.666;2022-07-17T09:48:54;1.25;;;0.85;;
38615;SDS011;24370;51.986;4.666;2022-07-17T09:51:22;0.98;;;0.90;;
38615;SDS011;24370;51.986;4.666;2022-07-17T09:53:56;1.50;;;0.75;;
38615;SDS011;24370;51.986;4.666;2022-07-17T09:56:24;2.08;;;1.05;;
38615;SDS011;24370;51.986;4.666;2022-07-17T09:58:52;3.80;;;0.77;;
38615;SDS011;24370;51.986;4.666;2022-07-17T10:01:24;2.13;;;0.90;;
38615;SDS011;24370;51.986;4.666;2022-07-17T10:03:50;1.15;;;0.57;;
38615;SDS011;24370;51.986;4.666;2022-07-17T10:06:18;2.25;;;1.00;;
38615;SDS011;24370;51.986;4.666;2022-07-17T10:08:43;1.52;;;0.90;;
38615;SDS011;24370;51.986;4.666;2022-07-17T10:11:09;2.78;;;0.80;;
38615;SDS011;24370;51.986;4.666;2022-07-17T10:13:36;3.75;;;1.30;;
38615;SDS011;24370;51.986;4.666;2022-07-17T10:16:04;2.17;;;0.88;;
38615;SDS011;24370;51.986;4.666;2022-07-17T10:18:33;1.75;;;0.85;;
38615;SDS011;24370;51.986;4.666;2022-07-17T10:21:33;2.30;;;0.93;;
38615;SDS011;24370;51.986;4.666;2022-07-17T10:26:40;3.15;;;1.67;;
38615;SDS011;24370;51.986;4.666;2022-07-17T10:32:07;3.22;;;1.10;;
38615;SDS011;24370;51.986;4.666;2022-07-17T10:42:41;2.05;;;1.00;;
38615;SDS011;24370;51.986;4.666;2022-07-17T10:45:30;1.88;;;0.80;;
38615;SDS011;24370;51.986;4.666;2022-07-17T10:48:00;2.67;;;0.98;;
38615;SDS011;24370;51.986;4.666;2022-07-17T10:52:56;1.30;;;0.80;;
38615;SDS011;24370;51.986;4.666;2022-07-17T10:55:23;1.10;;;0.90;;
38615;SDS011;24370;51.986;4.666;2022-07-17T10:57:48;2.25;;;0.70;;
38615;SDS011;24370;51.986;4.666;2022-07-17T11:00:17;0.90;;;0.75;;
38615;SDS011;24370;51.986;4.666;2022-07-17T11:02:43;2.03;;;0.70;;
38615;SDS011;24370;51.986;4.666;2022-07-17T11:05:09;2.15;;;0.93;;
38615;SDS011;24370;51.986;4.666;2022-07-17T11:10:16;1.33;;;0.90;;
38615;SDS011;24370;51.986;4.666;2022-07-17T11:12:42;3.00;;;1.00;;
38615;SDS011;24370;51.986;4.666;2022-07-17T11:15:07;2.25;;;0.98;;
38615;SDS011;24370;51.986;4.666;2022-07-17T11:17:33;1.73;;;0.93;;
38615;SDS011;24370;51.986;4.666;2022-07-17T11:19:58;1.83;;;0.75;;
38615;SDS011;24370;51.986;4.666;2022-07-17T11:22:24;2.28;;;0.80;;
38615;SDS011;24370;51.986;4.666;2022-07-17T11:24:50;2.53;;;1.00;;
38615;SDS011;24370;51.986;4.666;2022-07-17T11:27:28;3.38;;;0.88;;
38615;SDS011;24370;51.986;4.666;2022-07-17T11:29:55;2.03;;;0.90;;
38615;SDS011;24370;51.986;4.666;2022-07-17T11:32:22;2.17;;;1.00;;
38615;SDS011;24370;51.986;4.666;2022-07-17T11:34:50;3.65;;;0.93;;
38615;SDS011;24370;51.986;4.666;2022-07-17T11:37:15;1.10;;;0.80;;
38615;SDS011;24370;51.986;4.666;2022-07-17T11:39:44;1.05;;;0.82;;
38615;SDS011;24370;51.986;4.666;2022-07-17T11:42:13;5.23;;;1.10;;
38615;SDS011;24370;51.986;4.666;2022-07-17T11:44:52;3.20;;;1.17;;
38615;SDS011;24370;51.986;4.666;2022-07-17T11:47:20;4.05;;;1.20;;
38615;SDS011;24370;51.986;4.666;2022-07-17T11:49:51;1.63;;;0.70;;
38615;SDS011;24370;51.986;4.666;2022-07-17T11:52:18;1.40;;;0.90;;
38615;SDS011;24370;51.986;4.666;2022-07-17T11:57:15;1.45;;;1.10;;
38615;SDS011;24370;51.986;4.666;2022-07-17T11:59:42;1.90;;;0.90;;
38615;SDS011;24370;51.986;4.666;2022-07-17T12:02:08;1.35;;;0.90;;
38615;SDS011;24370;51.986;4.666;2022-07-17T12:04:35;2.75;;;1.20;;
38615;SDS011;24370;51.986;4.666;2022-07-17T12:07:01;2.72;;;1.10;;
38615;SDS011;24370;51.986;4.666;2022-07-17T12:09:28;2.67;;;1.20;;
38615;SDS011;24370;51.986;4.666;2022-07-17T12:12:00;1.38;;;1.10;;
38615;SDS011;24370;51.986;4.666;2022-07-17T12:14:26;1.63;;;1.08;;
38615;SDS011;24370;51.986;4.666;2022-07-17T12:16:52;1.52;;;1.10;;
38615;SDS011;24370;51.986;4.666;2022-07-17T12:19:23;2.97;;;1.33;;
38615;SDS011;24370;51.986;4.666;2022-07-17T12:22:00;1.75;;;1.20;;
38615;SDS011;24370;51.986;4.666;2022-07-17T12:24:28;1.52;;;0.95;;
38615;SDS011;24370;51.986;4.666;2022-07-17T12:26:59;2.05;;;0.95;;
38615;SDS011;24370;51.986;4.666;2022-07-17T12:29:26;3.25;;;1.10;;
38615;SDS011;24370;51.986;4.666;2022-07-17T12:32:08;1.95;;;1.30;;
38615;SDS011;24370;51.986;4.666;2022-07-17T12:34:39;1.55;;;1.35;;
38615;SDS011;24370;51.986;4.666;2022-07-17T12:37:12;1.65;;;1.42;;
38615;SDS011;24370;51.986;4.666;2022-07-17T12:39:38;3.00;;;1.50;;
38615;SDS011;24370;51.986;4.666;2022-07-17T12:42:03;2.15;;;1.60;;
38615;SDS011;24370;51.986;4.666;2022-07-17T12:44:29;1.60;;;1.20;;
38615;SDS011;24370;51.986;4.666;2022-07-17T12:46:55;2.58;;;1.40;;
38615;SDS011;24370;51.986;4.666;2022-07-17T12:49:20;2.53;;;1.48;;
38615;SDS011;24370;51.986;4.666;2022-07-17T12:51:46;3.90;;;1.55;;
38615;SDS011;24370;51.986;4.666;2022-07-17T12:54:12;2.65;;;1.30;;
38615;SDS011;24370;51.986;4.666;2022-07-17T12:56:37;2.28;;;1.35;;
38615;SDS011;24370;51.986;4.666;2022-07-17T12:59:03;1.65;;;1.27;;
38615;SDS011;24370;51.986;4.666;2022-07-17T13:01:29;3.15;;;1.42;;
38615;SDS011;24370;51.986;4.666;2022-07-17T13:03:54;2.47;;;1.67;;
38615;SDS011;24370;51.986;4.666;2022-07-17T13:06:20;2.83;;;2.00;;
38615;SDS011;24370;51.986;4.666;2022-07-17T13:08:45;4.13;;;2.50;;
38615;SDS011;24370;51.986;4.666;2022-07-17T13:11:11;3.83;;;1.65;;
38615;SDS011;24370;51.986;4.666;2022-07-17T13:13:36;5.13;;;1.95;;
38615;SDS011;24370;51.986;4.666;2022-07-17T13:16:02;3.13;;;1.88;;
38615;SDS011;24370;51.986;4.666;2022-07-17T13:18:27;2.13;;;1.73;;
38615;SDS011;24370;51.986;4.666;2022-07-17T13:20:53;3.83;;;1.92;;
38615;SDS011;24370;51.986;4.666;2022-07-17T13:23:18;3.13;;;2.15;;
38615;SDS011;24370;51.986;4.666;2022-07-17T13:25:44;5.40;;;2.47;;
38615;SDS011;24370;51.986;4.666;2022-07-17T13:28:09;4.28;;;2.22;;
38615;SDS011;24370;51.986;4.666;2022-07-17T13:30:35;2.10;;;1.75;;
38615;SDS011;24370;51.986;4.666;2022-07-17T13:33:00;2.60;;;2.22;;
38615;SDS011;24370;51.986;4.666;2022-07-17T13:35:26;4.00;;;1.80;;
38615;SDS011;24370;51.986;4.666;2022-07-17T13:37:52;3.00;;;2.20;;
38615;SDS011;24370;51.986;4.666;2022-07-17T13:40:17;4.80;;;2.60;;
38615;SDS011;24370;51.986;4.666;2022-07-17T13:42:49;3.55;;;2.28;;
38615;SDS011;24370;51.986;4.666;2022-07-17T13:45:14;2.88;;;2.03;;
38615;SDS011;24370;51.986;4.666;2022-07-17T13:47:39;4.30;;;2.25;;
38615;SDS011;24370;51.986;4.666;2022-07-17T13:50:05;4.43;;;2.55;;
38615;SDS011;24370;51.986;4.666;2022-07-17T13:52:31;4.40;;;2.83;;
38615;SDS011;24370;51.986;4.666;2022-07-17T13:54:57;5.20;;;2.60;;
38615;SDS011;24370;51.986;4.666;2022-07-17T13:57:22;4.78;;;3.08;;
38615;SDS011;24370;51.986;4.666;2022-07-17T13:59:48;4.05;;;2.72;;
38615;SDS011;24370;51.986;4.666;2022-07-17T14:02:14;5.13;;;2.78;;
38615;SDS011;24370;51.986;4.666;2022-07-17T14:04:40;5.63;;;2.90;;
38615;SDS011;24370;51.986;4.666;2022-07-17T14:07:06;7.15;;;2.95;;
38615;SDS011;24370;51.986;4.666;2022-07-17T14:09:32;3.13;;;2.50;;
38615;SDS011;24370;51.986;4.666;2022-07-17T14:11:58;6.10;;;3.20;;
38615;SDS011;24370;51.986;4.666;2022-07-17T14:14:23;3.15;;;2.50;;
38615;SDS011;24370;51.986;4.666;2022-07-17T14:16:49;4.90;;;2.65;;
38615;SDS011;24370;51.986;4.666;2022-07-17T14:19:15;3.60;;;2.90;;
38615;SDS011;24370;51.986;4.666;2022-07-17T14:21:40;5.75;;;3.35;;
38615;SDS011;24370;51.986;4.666;2022-07-17T14:24:06;4.85;;;3.25;;
38615;SDS011;24370;51.986;4.666;2022-07-17T14:26:32;4.60;;;3.13;;
38615;SDS011;24370;51.986;4.666;2022-07-17T14:28:58;5.03;;;3.72;;
38615;SDS011;24370;51.986;4.666;2022-07-17T14:31:24;5.63;;;3.38;;
38615;SDS011;24370;51.986;4.666;2022-07-17T14:33:49;5.85;;;3.53;;
38615;SDS011;24370;51.986;4.666;2022-07-17T14:36:15;5.95;;;3.97;;
38615;SDS011;24370;51.986;4.666;2022-07-17T14:38:41;5.18;;;3.40;;
38615;SDS011;24370;51.986;4.666;2022-07-17T14:41:06;4.65;;;3.22;;
38615;SDS011;24370;51.986;4.666;2022-07-17T14:43:32;6.85;;;3.75;;
38615;SDS011;24370;51.986;4.666;2022-07-17T14:45:57;6.93;;;3.83;;
38615;SDS011;24370;51.986;4.666;2022-07-17T14:48:23;5.45;;;3.42;;
38615;SDS011;24370;51.986;4.666;2022-07-17T14:50:49;7.18;;;3.45;;
38615;SDS011;24370;51.986;4.666;2022-07-17T14:53:15;3.97;;;2.75;;
38615;SDS011;24370;51.986;4.666;2022-07-17T14:55:40;5.82;;;3.17;;
38615;SDS011;24370;51.986;4.666;2022-07-17T14:58:06;5.75;;;3.55;;
38615;SDS011;24370;51.986;4.666;2022-07-17T15:00:31;4.03;;;2.88;;
38615;SDS011;24370;51.986;4.666;2022-07-17T15:02:56;6.28;;;3.10;;
38615;SDS011;24370;51.986;4.666;2022-07-17T15:05:22;6.57;;;3.38;;